createdAt,value
2019-04-06T00:00:05.608Z,91.27
2019-04-06T00:02:36.839Z,89.90
2019-04-06T00:05:06.679Z,81.63
2019-04-06T00:07:35.439Z,82.77
2019-04-06T00:10:05.619Z,70.90
2019-04-06T00:12:34.667Z,80.37
2019-04-06T00:15:03.608Z,83.83
2019-04-06T00:17:32.443Z,82.93
2019-04-06T00:20:20.415Z,85.43
2019-04-06T00:22:49.416Z,77.60
2019-04-06T00:25:18.188Z,85.13
2019-04-06T00:27:46.883Z,89.10
2019-04-06T00:30:16.440Z,80.80
2019-04-06T00:32:52.938Z,85.87
2019-04-06T00:35:21.737Z,80.53
2019-04-06T00:37:50.844Z,79.67
2019-04-06T00:40:19.550Z,92.77
2019-04-06T00:42:48.364Z,86.80
2019-04-06T00:45:17.062Z,72.73
2019-04-06T00:47:46.666Z,65.80
2019-04-06T00:50:15.754Z,78.37
2019-04-06T00:52:44.503Z,73.30
2019-04-06T00:55:13.934Z,81.67
2019-04-06T00:57:42.774Z,71.10
2019-04-06T01:00:11.954Z,71.27
2019-04-06T01:02:40.733Z,72.60
2019-04-06T01:05:09.990Z,83.03
2019-04-06T01:07:38.740Z,87.47
2019-04-06T01:10:07.902Z,76.17
2019-04-06T01:12:36.683Z,72.47
2019-04-06T01:15:06.285Z,75.43
2019-04-06T01:17:35.117Z,73.10
2019-04-06T01:20:04.231Z,80.70
2019-04-06T01:22:32.969Z,76.33
2019-04-06T01:25:01.735Z,74.90
2019-04-06T01:27:30.561Z,74.80
2019-04-06T01:29:59.671Z,70.60
2019-04-06T01:32:28.598Z,64.43
2019-04-06T01:34:57.463Z,71.60
2019-04-06T01:37:26.739Z,71.07
2019-04-06T01:39:55.503Z,75.03
2019-04-06T01:42:24.240Z,69.67
2019-04-06T01:44:52.939Z,70.57
2019-04-06T01:47:21.948Z,70.77
2019-04-06T01:49:50.667Z,58.10
2019-04-06T01:52:19.451Z,68.33
2019-04-06T01:54:48.423Z,60.67
2019-04-06T01:57:17.263Z,55.40
2019-04-06T01:59:46.152Z,66.60
2019-04-06T02:02:19.734Z,58.03
2019-04-06T02:04:48.559Z,54.10
2019-04-06T02:07:17.333Z,57.90
2019-04-06T02:09:46.215Z,55.77
2019-04-06T02:12:15.039Z,58.50
2019-04-06T02:14:43.784Z,55.97
2019-04-06T02:17:12.822Z,57.80
2019-04-06T02:19:41.518Z,65.63
2019-04-06T02:22:10.397Z,78.50
2019-04-06T02:24:39.129Z,54.80
2019-04-06T02:27:07.968Z,53.67
2019-04-06T02:29:36.918Z,51.40
2019-04-06T02:32:16.695Z,42.87
2019-04-06T02:35:00.675Z,51.43
2019-04-06T02:37:51.480Z,60.90
2019-04-06T02:40:45.177Z,67.80
2019-04-06T02:43:17.436Z,56.50
2019-04-06T02:45:46.248Z,48.53
2019-04-06T02:48:15.274Z,54.23
2019-04-06T02:50:43.996Z,55.87
2019-04-06T02:53:12.819Z,45.77
2019-04-06T02:55:41.601Z,53.30
2019-04-06T02:58:10.629Z,48.90
2019-04-06T03:00:39.677Z,48.33
2019-04-06T03:03:08.483Z,54.90
2019-04-06T03:05:37.321Z,44.50
2019-04-06T03:08:06.230Z,46.10
2019-04-06T03:10:35.523Z,45.13
2019-04-06T03:13:04.350Z,41.60
2019-04-06T03:15:33.625Z,48.37
2019-04-06T03:18:02.462Z,43.67
2019-04-06T03:20:31.215Z,62.50
2019-04-06T03:23:00.052Z,47.07
2019-04-06T03:25:29.071Z,45.73
2019-04-06T03:27:57.938Z,47.50
2019-04-06T03:30:26.874Z,55.00
2019-04-06T03:32:55.844Z,42.40
2019-04-06T03:35:24.615Z,49.30
2019-04-06T03:37:53.462Z,48.63
2019-04-06T03:40:22.239Z,48.80
2019-04-06T03:42:51.106Z,49.07
2019-04-06T03:45:19.870Z,49.70
2019-04-06T03:47:48.609Z,43.87
2019-04-06T03:50:17.332Z,50.83
2019-04-06T03:52:46.055Z,57.20
2019-04-06T03:55:14.821Z,53.67
2019-04-06T03:57:43.937Z,42.67
2019-04-06T04:00:13.171Z,47.10
2019-04-06T04:02:41.886Z,46.27
2019-04-06T04:05:11.332Z,49.20
2019-04-06T04:07:40.220Z,52.03
2019-04-06T04:10:11.866Z,47.23
2019-04-06T04:12:40.561Z,42.53
2019-04-06T04:15:09.383Z,48.47
2019-04-06T04:17:38.127Z,52.00
2019-04-06T04:20:07.697Z,48.57
2019-04-06T04:22:36.566Z,45.53
2019-04-06T04:25:05.945Z,59.67
2019-04-06T04:27:34.941Z,43.47
2019-04-06T04:30:04.539Z,42.93
2019-04-06T04:32:33.312Z,56.17
2019-04-06T04:35:02.038Z,45.87
2019-04-06T04:37:31.031Z,36.77
2019-04-06T04:39:59.915Z,45.43
2019-04-06T04:42:28.988Z,46.73
2019-04-06T04:44:58.032Z,51.00
2019-04-06T04:47:26.999Z,42.10
2019-04-06T04:49:56.026Z,36.83
2019-04-06T04:52:25.169Z,62.97
2019-04-06T04:54:53.971Z,38.40
2019-04-06T04:57:22.696Z,49.90
2019-04-06T04:59:51.431Z,51.90
2019-04-06T05:02:20.443Z,38.60
2019-04-06T05:04:49.167Z,48.40
2019-04-06T05:07:17.873Z,44.20
2019-04-06T05:09:46.609Z,40.83
2019-04-06T05:12:15.316Z,63.33
2019-04-06T05:15:01.156Z,42.67
2019-04-06T05:17:30.432Z,49.47
2019-04-06T05:20:00.147Z,45.83
2019-04-06T05:22:28.983Z,49.70
2019-04-06T05:24:57.811Z,49.30
2019-04-06T05:27:26.511Z,50.00
2019-04-06T05:29:55.233Z,40.43
2019-04-06T05:32:23.999Z,42.77
2019-04-06T05:34:52.714Z,35.67
2019-04-06T05:37:21.819Z,37.30
2019-04-06T05:39:50.740Z,40.23
2019-04-06T05:42:19.431Z,86.80
2019-04-06T05:44:48.376Z,87.00
2019-04-06T05:47:17.267Z,47.80
2019-04-06T05:49:46.197Z,41.20
2019-04-06T05:52:14.930Z,51.73
2019-04-06T05:54:43.696Z,44.80
2019-04-06T05:57:12.404Z,58.23
2019-04-06T05:59:41.171Z,45.00
2019-04-06T06:02:10.417Z,49.73
2019-04-06T06:04:40.573Z,50.03
2019-04-06T06:07:09.968Z,38.80
2019-04-06T06:09:38.899Z,53.30
2019-04-06T06:12:08.953Z,38.80
2019-04-06T06:14:37.741Z,43.27
2019-04-06T06:17:06.607Z,48.43
2019-04-06T06:19:35.489Z,43.97
2019-04-06T06:22:04.310Z,47.27
2019-04-06T06:24:34.735Z,36.30
2019-04-06T06:27:03.647Z,42.33
2019-04-06T06:29:32.367Z,42.30
2019-04-06T06:32:01.096Z,43.70
2019-04-06T06:34:29.832Z,43.30
2019-04-06T06:36:58.828Z,42.23
2019-04-06T06:39:27.722Z,38.77
2019-04-06T06:41:56.401Z,49.43
2019-04-06T06:44:25.581Z,46.00
2019-04-06T06:46:54.354Z,38.90
2019-04-06T06:49:23.366Z,47.67
2019-04-06T06:51:52.269Z,46.20
2019-04-06T06:54:20.991Z,41.30
2019-04-06T06:56:50.060Z,41.53
2019-04-06T06:59:18.812Z,37.67
2019-04-06T07:01:47.651Z,37.37
2019-04-06T07:04:16.459Z,41.63
2019-04-06T07:06:45.292Z,45.73
2019-04-06T07:09:14.356Z,41.50
2019-04-06T07:11:43.214Z,40.23
2019-04-06T07:14:12.021Z,42.53
2019-04-06T07:16:41.274Z,48.23
2019-04-06T07:19:10.373Z,40.83
2019-04-06T07:21:39.239Z,50.87
2019-04-06T07:24:07.962Z,47.97
2019-04-06T07:26:37.089Z,40.40
2019-04-06T07:29:05.883Z,44.13
2019-04-06T07:31:34.936Z,55.53
2019-04-06T07:34:03.709Z,37.67
2019-04-06T07:36:32.528Z,46.13
2019-04-06T07:39:01.656Z,44.27
2019-04-06T07:41:30.468Z,43.63
2019-04-06T07:43:59.238Z,46.83
2019-04-06T07:46:27.984Z,41.20
2019-04-06T07:49:07.473Z,44.40
2019-04-06T07:51:27.232Z,41.53
2019-04-06T07:53:56.073Z,47.23
2019-04-06T07:56:24.784Z,58.40
2019-04-06T07:58:53.475Z,60.47
2019-04-06T08:01:22.316Z,41.83
2019-04-06T08:03:51.054Z,44.83
2019-04-06T08:06:19.967Z,46.77
2019-04-06T08:08:48.718Z,46.07
2019-04-06T08:11:18.574Z,42.23
2019-04-06T08:13:47.286Z,45.20
2019-04-06T08:16:16.060Z,40.80
2019-04-06T08:18:44.893Z,41.20
2019-04-06T08:21:13.744Z,50.07
2019-04-06T08:23:42.454Z,63.20
2019-04-06T08:26:11.150Z,39.03
2019-04-06T08:28:40.164Z,45.20
2019-04-06T08:31:09.123Z,38.20
2019-04-06T08:33:38.167Z,97.07
2019-04-06T08:36:06.962Z,62.90
2019-04-06T08:38:35.818Z,49.47
2019-04-06T08:41:04.751Z,77.73
2019-04-06T08:43:33.554Z,48.80
2019-04-06T08:46:01.879Z,40.60
2019-04-06T08:48:30.651Z,49.10
2019-04-06T08:50:59.716Z,38.93
2019-04-06T08:53:28.710Z,40.20
2019-04-06T08:55:57.576Z,43.03
2019-04-06T08:58:26.602Z,42.27
2019-04-06T09:00:55.363Z,40.67
2019-04-06T09:03:24.059Z,45.27
2019-04-06T09:05:53.511Z,40.33
2019-04-06T09:08:22.608Z,53.47
2019-04-06T09:10:51.840Z,40.07
2019-04-06T09:13:20.627Z,41.63
2019-04-06T09:15:49.544Z,41.10
2019-04-06T09:18:18.314Z,44.23
2019-04-06T09:20:47.346Z,42.80
2019-04-06T09:23:16.051Z,42.70
2019-04-06T09:25:44.875Z,42.50
2019-04-06T09:28:13.597Z,39.60
2019-04-06T09:30:42.394Z,40.07
2019-04-06T09:33:11.469Z,42.13
2019-04-06T09:35:40.262Z,45.23
2019-04-06T09:38:18.919Z,42.50
2019-04-06T09:40:49.003Z,42.67
2019-04-06T09:43:17.906Z,47.23
2019-04-06T09:46:15.160Z,42.03
2019-04-06T09:48:55.028Z,41.80
2019-04-06T09:51:49.299Z,46.87
2019-04-06T09:54:29.722Z,43.10
2019-04-06T09:57:16.952Z,46.13
2019-04-06T10:00:02.756Z,43.63
2019-04-06T10:02:36.512Z,44.10
2019-04-06T10:05:28.239Z,42.27
2019-04-06T10:08:06.727Z,44.63
2019-04-06T10:10:52.471Z,39.73
2019-04-06T10:13:27.625Z,39.70
2019-04-06T10:16:18.560Z,39.27
2019-04-06T10:19:00.610Z,39.77
2019-04-06T10:21:55.252Z,37.93
2019-04-06T10:24:44.168Z,40.30
2019-04-06T10:27:24.668Z,40.60
2019-04-06T10:30:22.070Z,40.27
2019-04-06T10:32:57.795Z,39.00
2019-04-06T10:35:35.420Z,38.90
2019-04-06T10:38:25.849Z,40.00
2019-04-06T10:41:04.095Z,37.77
2019-04-06T10:43:39.673Z,39.37
2019-04-06T10:46:25.044Z,40.40
2019-04-06T10:49:09.612Z,39.57
2019-04-06T10:51:49.331Z,36.73
2019-04-06T10:54:49.635Z,37.17
2019-04-06T10:57:49.692Z,37.13
2019-04-06T11:00:33.248Z,37.80
2019-04-06T11:03:15.548Z,36.40
2019-04-06T11:06:06.169Z,38.23
2019-04-06T11:08:48.597Z,37.80
2019-04-06T11:11:25.039Z,40.30
2019-04-06T11:14:11.997Z,38.70
2019-04-06T11:17:06.714Z,43.63
2019-04-06T11:19:54.519Z,39.27
2019-04-06T11:22:35.539Z,38.40
2019-04-06T11:25:19.883Z,39.47
2019-04-06T11:28:06.719Z,39.50
2019-04-06T11:30:44.794Z,37.50
2019-04-06T11:33:25.623Z,40.60
2019-04-06T11:36:12.643Z,38.77
2019-04-06T11:38:55.098Z,39.70
2019-04-06T11:41:42.916Z,39.30
2019-04-06T11:44:30.219Z,41.80
2019-04-06T11:47:09.451Z,40.10
2019-04-06T11:49:56.385Z,39.40
2019-04-06T11:52:44.692Z,39.27
2019-04-06T11:55:26.285Z,36.63
2019-04-06T11:58:14.395Z,37.70
2019-04-06T12:00:52.453Z,37.60
2019-04-06T12:03:27.047Z,43.30
2019-04-06T12:06:03.411Z,38.73
2019-04-06T12:08:40.720Z,41.27
2019-04-06T12:11:35.466Z,46.63
2019-04-06T12:14:23.455Z,45.23
2019-04-06T12:17:03.094Z,46.40
2019-04-06T12:19:46.286Z,41.57
2019-04-06T12:22:24.199Z,42.30
2019-04-06T12:25:30.692Z,39.73
2019-04-06T12:28:30.339Z,44.33
2019-04-06T12:31:18.150Z,39.93
2019-04-06T12:34:11.659Z,46.00
2019-04-06T12:37:05.651Z,39.33
2019-04-06T12:39:51.859Z,36.93
2019-04-06T12:42:29.804Z,41.23
2019-04-06T12:45:20.566Z,41.53
2019-04-06T12:48:07.191Z,38.87
2019-04-06T12:50:47.740Z,38.87
2019-04-06T12:53:28.179Z,39.67
2019-04-06T12:56:16.399Z,47.63
2019-04-06T12:58:49.782Z,48.07
2019-04-06T13:01:37.146Z,39.70
2019-04-06T13:04:16.491Z,43.80
2019-04-06T13:06:59.600Z,50.03
2019-04-06T13:09:42.103Z,44.67
2019-04-06T13:12:28.539Z,48.97
2019-04-06T13:15:06.635Z,46.80
2019-04-06T13:17:50.252Z,50.13
2019-04-06T13:20:39.314Z,42.57
2019-04-06T13:23:32.152Z,42.53
2019-04-06T13:26:20.031Z,40.10
2019-04-06T13:29:16.214Z,40.80
2019-04-06T13:32:11.459Z,40.20
2019-04-06T13:34:59.313Z,39.07
2019-04-06T13:37:46.180Z,38.93
2019-04-06T13:40:26.139Z,41.93
2019-04-06T13:43:02.013Z,41.50
2019-04-06T13:45:40.495Z,44.63
2019-04-06T13:48:25.634Z,41.10
2019-04-06T13:51:12.397Z,39.63
2019-04-06T13:54:09.132Z,43.27
2019-04-06T13:56:58.195Z,36.93
2019-04-06T13:59:37.558Z,40.10
2019-04-06T14:02:12.697Z,39.50
2019-04-06T14:05:06.687Z,36.87
2019-04-06T14:07:54.838Z,34.80
2019-04-06T14:10:51.853Z,35.17
2019-04-06T14:13:27.811Z,35.83
2019-04-06T14:16:14.668Z,36.40
2019-04-06T14:18:59.240Z,36.40
2019-04-06T14:21:37.932Z,35.67
2019-04-06T14:24:24.088Z,37.70
2019-04-06T14:27:18.356Z,36.90
2019-04-06T14:30:05.048Z,35.97
2019-04-06T14:33:11.564Z,35.70
2019-04-06T14:36:14.642Z,39.13
2019-04-06T14:39:06.774Z,35.73
2019-04-06T14:42:00.575Z,37.13
2019-04-06T14:44:54.710Z,35.83
2019-04-06T14:47:41.655Z,36.50
2019-04-06T14:50:21.679Z,35.87
2019-04-06T14:53:08.620Z,36.47
2019-04-06T14:55:57.105Z,36.73
2019-04-06T14:58:54.736Z,37.87
2019-04-06T15:01:48.938Z,34.73
2019-04-06T15:04:28.983Z,36.40
2019-04-06T15:07:24.849Z,37.67
2019-04-06T15:10:27.844Z,37.20
2019-04-06T15:13:18.335Z,36.23
2019-04-06T15:15:55.393Z,37.67
2019-04-06T15:18:55.811Z,37.67
2019-04-06T15:21:34.523Z,41.83
2019-04-06T15:24:21.575Z,38.97
2019-04-06T15:27:07.452Z,40.60
2019-04-06T15:29:45.643Z,36.90
2019-04-06T15:32:24.563Z,37.77
2019-04-06T15:35:02.080Z,36.50
2019-04-06T15:37:50.023Z,39.83
2019-04-06T15:40:37.853Z,36.40
2019-04-06T15:43:14.471Z,35.33
2019-04-06T15:46:09.021Z,36.37
2019-04-06T15:48:55.752Z,38.17
2019-04-06T15:51:40.443Z,36.67
2019-04-06T15:54:34.458Z,38.60
2019-04-06T15:57:15.662Z,37.93
2019-04-06T15:59:58.889Z,41.70
2019-04-06T16:02:55.971Z,45.87
2019-04-06T16:05:42.728Z,38.50
2019-04-06T16:08:17.869Z,38.87
2019-04-06T16:11:04.628Z,40.57
2019-04-06T16:13:52.943Z,39.63
2019-04-06T16:16:46.984Z,41.07
2019-04-06T16:19:25.383Z,40.70
2019-04-06T16:22:04.693Z,38.17
2019-04-06T16:24:51.200Z,38.93
2019-04-06T16:27:38.254Z,43.70
2019-04-06T16:30:25.841Z,39.27
2019-04-06T16:33:11.364Z,39.60
2019-04-06T16:36:02.324Z,38.03
2019-04-06T16:38:50.671Z,41.97
2019-04-06T16:41:28.642Z,38.90
2019-04-06T16:44:04.888Z,42.03
2019-04-06T16:46:51.913Z,38.90
2019-04-06T16:49:40.579Z,37.80
2019-04-06T16:52:18.081Z,40.33
2019-04-06T16:55:06.947Z,38.60
2019-04-06T16:57:45.949Z,41.30
2019-04-06T17:00:31.567Z,48.67
2019-04-06T17:03:10.572Z,41.47
2019-04-06T17:05:52.629Z,38.57
2019-04-06T17:08:33.571Z,36.57
2019-04-06T17:11:17.516Z,41.40
2019-04-06T17:14:04.262Z,38.30
2019-04-06T17:16:50.114Z,38.97
2019-04-06T17:19:37.238Z,36.10
2019-04-06T17:22:25.225Z,38.67
2019-04-06T17:25:04.612Z,40.50
2019-04-06T17:27:58.471Z,39.77
2019-04-06T17:30:36.055Z,37.53
2019-04-06T17:33:24.180Z,35.40
2019-04-06T17:36:00.783Z,37.63
2019-04-06T17:38:40.044Z,36.63
2019-04-06T17:41:28.334Z,39.67
2019-04-06T17:44:14.151Z,44.70
2019-04-06T17:46:56.359Z,40.93
2019-04-06T17:49:43.952Z,40.47
2019-04-06T17:52:26.685Z,36.83
2019-04-06T17:55:14.985Z,38.13
2019-04-06T17:57:52.322Z,35.70
2019-04-06T18:00:41.924Z,38.93
2019-04-06T18:03:29.824Z,37.37
2019-04-06T18:06:11.494Z,38.17
2019-04-06T18:09:07.424Z,37.10
2019-04-06T18:11:50.732Z,39.67
2019-04-06T18:14:19.947Z,49.23
2019-04-06T18:16:48.907Z,39.90
2019-04-06T18:19:17.670Z,37.47
2019-04-06T18:21:46.417Z,38.37
2019-04-06T18:24:15.636Z,41.70
2019-04-06T18:26:44.460Z,38.97
2019-04-06T18:29:13.405Z,41.07
2019-04-06T18:32:10.365Z,43.20
2019-04-06T18:34:39.191Z,39.17
2019-04-06T18:37:30.171Z,40.17
2019-04-06T18:40:00.633Z,39.80
2019-04-06T18:42:29.644Z,38.47
2019-04-06T18:44:58.763Z,43.83
2019-04-06T18:47:27.591Z,42.37
2019-04-06T18:49:57.268Z,39.33
2019-04-06T18:52:26.164Z,43.43
2019-04-06T18:54:55.095Z,43.30
2019-04-06T18:57:23.851Z,39.13
2019-04-06T18:59:52.683Z,44.53
2019-04-06T19:02:22.562Z,44.70
2019-04-06T19:04:51.382Z,43.70
2019-04-06T19:07:20.756Z,42.90
2019-04-06T19:09:49.770Z,40.27
2019-04-06T19:12:18.568Z,38.37
2019-04-06T19:14:47.537Z,41.40
2019-04-06T19:17:16.792Z,40.37
2019-04-06T19:19:45.691Z,39.63
2019-04-06T19:22:14.842Z,41.03
2019-04-06T19:24:44.483Z,39.50
2019-04-06T19:27:32.921Z,41.77
2019-04-06T19:30:02.156Z,43.00
2019-04-06T19:32:31.517Z,40.70
2019-04-06T19:35:01.191Z,38.67
2019-04-06T19:37:30.523Z,41.97
2019-04-06T19:39:59.448Z,39.53
2019-04-06T19:42:28.560Z,38.40
2019-04-06T19:44:58.019Z,45.70
2019-04-06T19:47:27.702Z,46.90
2019-04-06T19:49:56.780Z,39.20
2019-04-06T19:52:25.696Z,44.07
2019-04-06T19:54:54.502Z,46.13
2019-04-06T19:57:23.866Z,44.87
2019-04-06T19:59:52.880Z,40.43
2019-04-06T20:02:22.065Z,45.70
2019-04-06T20:04:51.015Z,43.47
2019-04-06T20:07:19.835Z,47.20
2019-04-06T20:09:48.632Z,45.33
2019-04-06T20:12:17.806Z,45.37
2019-04-06T20:14:47.179Z,44.77
2019-04-06T20:17:16.212Z,47.10
2019-04-06T20:19:45.480Z,50.33
2019-04-06T20:22:14.863Z,54.33
2019-04-06T20:24:44.143Z,60.80
2019-04-06T20:27:13.708Z,49.87
2019-04-06T20:29:43.060Z,52.37
2019-04-06T20:32:12.357Z,53.83
2019-04-06T20:34:41.417Z,53.63
2019-04-06T20:37:10.220Z,47.60
2019-04-06T20:39:39.530Z,53.33
2019-04-06T20:42:08.934Z,52.03
2019-04-06T20:44:38.278Z,50.73
2019-04-06T20:47:07.083Z,53.70
2019-04-06T20:49:36.260Z,72.97
2019-04-06T20:52:05.126Z,57.47
2019-04-06T20:54:34.160Z,51.43
2019-04-06T20:57:03.058Z,57.53
2019-04-06T20:59:31.859Z,53.90
2019-04-06T21:02:01.242Z,54.93
2019-04-06T21:04:30.144Z,54.03
2019-04-06T21:06:59.932Z,55.00
2019-04-06T21:09:29.357Z,51.33
2019-04-06T21:11:58.327Z,52.87
2019-04-06T21:14:27.249Z,54.10
2019-04-06T21:16:56.316Z,51.40
2019-04-06T21:19:25.162Z,51.97
2019-04-06T21:21:53.902Z,53.73
2019-04-06T21:24:22.724Z,49.90
2019-04-06T21:26:52.192Z,53.97
2019-04-06T21:29:21.745Z,58.47
2019-04-06T21:31:50.878Z,51.67
2019-04-06T21:34:22.387Z,52.90
2019-04-06T21:36:51.223Z,49.60
2019-04-06T21:39:20.192Z,51.43
2019-04-06T21:41:49.757Z,50.40
2019-04-06T21:44:18.747Z,63.33
2019-04-06T21:46:48.078Z,55.30
2019-04-06T21:49:16.999Z,53.23
2019-04-06T21:51:45.924Z,53.20
2019-04-06T21:54:14.843Z,49.50
2019-04-06T21:56:45.928Z,48.97
2019-04-06T21:59:16.094Z,60.67
2019-04-06T22:01:45.607Z,48.07
2019-04-06T22:04:24.927Z,51.77
2019-04-06T22:06:45.059Z,44.37
2019-04-06T22:09:15.137Z,56.07
2019-04-06T22:11:43.886Z,44.87
2019-04-06T22:14:12.782Z,46.20
2019-04-06T22:16:43.327Z,42.37
2019-04-06T22:19:12.138Z,48.43
2019-04-06T22:21:40.894Z,45.27
2019-04-06T22:24:09.672Z,54.57
2019-04-06T22:26:38.407Z,43.83
2019-04-06T22:29:08.129Z,42.40
2019-04-06T22:31:37.100Z,46.00
2019-04-06T22:34:05.980Z,58.07
2019-04-06T22:36:34.715Z,52.47
2019-04-06T22:39:06.077Z,45.97
2019-04-06T22:41:35.400Z,57.43
2019-04-06T22:44:05.204Z,51.37
2019-04-06T22:46:35.364Z,56.73
2019-04-06T22:49:04.355Z,47.00
2019-04-06T22:51:33.106Z,51.23
2019-04-06T22:54:02.519Z,50.47
2019-04-06T22:56:31.293Z,59.40
2019-04-06T22:59:00.651Z,57.80
2019-04-06T23:01:31.333Z,67.23
2019-04-06T23:04:12.041Z,59.50
2019-04-06T23:06:44.919Z,56.40
2019-04-06T23:09:14.404Z,52.37
2019-04-06T23:11:43.842Z,55.40
2019-04-06T23:14:12.627Z,66.83
2019-04-06T23:16:41.513Z,68.90
2019-04-06T23:19:10.916Z,59.23
2019-04-06T23:21:39.751Z,50.63
2019-04-06T23:24:08.546Z,52.97
2019-04-06T23:26:37.558Z,68.63
2019-04-06T23:29:06.568Z,54.70
2019-04-06T23:31:35.353Z,54.40
2019-04-06T23:34:04.183Z,53.80
2019-04-06T23:36:33.267Z,47.07
2019-04-06T23:39:02.411Z,49.73
2019-04-06T23:41:31.282Z,54.60
2019-04-06T23:44:00.052Z,61.00
2019-04-06T23:46:28.928Z,51.43
2019-04-06T23:48:58.106Z,48.67
2019-04-06T23:51:26.903Z,47.93
2019-04-06T23:53:56.217Z,50.90
2019-04-06T23:56:25.391Z,45.60
2019-04-06T23:58:54.609Z,46.20
